sensor_id;sensor_type;location;lat;lon;timestamp;pressure;altitude;pressure_sealevel;temperature;humidity
16777;BME280;8505;49.456;8.164;2023-03-01T00:01:44;100774.34;;;0.12;65.14
16777;BME280;8505;49.456;8.164;2023-03-01T00:04:13;100768.78;;;0.35;64.69
16777;BME280;8505;49.456;8.164;2023-03-01T00:06:42;100776.00;;;0.13;65.10
16777;BME280;8505;49.456;8.164;2023-03-01T00:09:12;100765.91;;;0.24;64.85
16777;BME280;8505;49.456;8.164;2023-03-01T00:11:40;100770.78;;;-0.03;65.72
16777;BME280;8505;49.456;8.164;2023-03-01T00:14:08;100766.69;;;0.09;65.23
16777;BME280;8505;49.456;8.164;2023-03-01T00:16:38;100757.75;;;0.30;64.79
16777;BME280;8505;49.456;8.164;2023-03-01T00:19:07;100765.22;;;-0.13;66.14
16777;BME280;8505;49.456;8.164;2023-03-01T00:21:38;100769.00;;;-0.03;66.03
16777;BME280;8505;49.456;8.164;2023-03-01T00:24:06;100769.16;;;0.12;65.64
16777;BME280;8505;49.456;8.164;2023-03-01T00:26:34;100766.47;;;-0.04;66.37
16777;BME280;8505;49.456;8.164;2023-03-01T00:29:03;100771.22;;;-0.12;66.30
16777;BME280;8505;49.456;8.164;2023-03-01T00:31:32;100768.44;;;-0.25;67.52
16777;BME280;8505;49.456;8.164;2023-03-01T00:34:02;100761.66;;;-0.12;66.98
16777;BME280;8505;49.456;8.164;2023-03-01T00:36:31;100767.34;;;-0.21;67.35
16777;BME280;8505;49.456;8.164;2023-03-01T00:39:03;100770.88;;;-0.22;67.38
16777;BME280;8505;49.456;8.164;2023-03-01T00:41:31;100774.31;;;-0.38;67.56
16777;BME280;8505;49.456;8.164;2023-03-01T00:44:00;100766.03;;;-0.12;67.52
16777;BME280;8505;49.456;8.164;2023-03-01T00:46:28;100766.44;;;-0.20;67.35
16777;BME280;8505;49.456;8.164;2023-03-01T00:48:57;100770.72;;;-0.36;67.92
16777;BME280;8505;49.456;8.164;2023-03-01T00:51:28;100769.63;;;-0.15;67.91
16777;BME280;8505;49.456;8.164;2023-03-01T00:53:58;100769.25;;;-0.42;68.25
16777;BME280;8505;49.456;8.164;2023-03-01T00:56:28;100777.91;;;-0.24;68.06
16777;BME280;8505;49.456;8.164;2023-03-01T00:58:56;100785.56;;;-0.21;68.08
16777;BME280;8505;49.456;8.164;2023-03-01T01:01:26;100784.66;;;-0.20;67.75
16777;BME280;8505;49.456;8.164;2023-03-01T01:03:58;100786.66;;;-0.25;68.12
16777;BME280;8505;49.456;8.164;2023-03-01T01:06:27;100781.75;;;-0.31;67.82
16777;BME280;8505;49.456;8.164;2023-03-01T01:08:57;100780.97;;;-0.50;68.54
16777;BME280;8505;49.456;8.164;2023-03-01T01:11:28;100776.56;;;-0.31;68.35
16777;BME280;8505;49.456;8.164;2023-03-01T01:13:57;100766.03;;;-0.29;68.27
16777;BME280;8505;49.456;8.164;2023-03-01T01:16:27;100764.22;;;-0.62;69.65
16777;BME280;8505;49.456;8.164;2023-03-01T01:18:56;100751.97;;;-0.60;69.63
16777;BME280;8505;49.456;8.164;2023-03-01T01:21:25;100752.03;;;-0.61;69.28
16777;BME280;8505;49.456;8.164;2023-03-01T01:23:53;100758.78;;;-0.40;68.59
16777;BME280;8505;49.456;8.164;2023-03-01T01:26:23;100751.03;;;-0.24;68.14
16777;BME280;8505;49.456;8.164;2023-03-01T01:28:53;100744.69;;;-0.53;69.07
16777;BME280;8505;49.456;8.164;2023-03-01T01:31:21;100757.06;;;-0.24;68.43
16777;BME280;8505;49.456;8.164;2023-03-01T01:33:50;100748.22;;;-0.54;69.33
16777;BME280;8505;49.456;8.164;2023-03-01T01:36:18;100741.84;;;-0.49;68.89
16777;BME280;8505;49.456;8.164;2023-03-01T01:38:46;100736.25;;;-0.24;68.59
16777;BME280;8505;49.456;8.164;2023-03-01T01:41:14;100721.69;;;-0.11;67.69
16777;BME280;8505;49.456;8.164;2023-03-01T01:43:44;100718.66;;;-0.36;68.45
16777;BME280;8505;49.456;8.164;2023-03-01T01:46:21;100722.72;;;-0.30;68.28
16777;BME280;8505;49.456;8.164;2023-03-01T01:48:53;100716.50;;;-0.11;67.46
16777;BME280;8505;49.456;8.164;2023-03-01T01:51:25;100705.41;;;-0.14;67.85
16777;BME280;8505;49.456;8.164;2023-03-01T01:53:59;100696.69;;;-0.13;67.23
16777;BME280;8505;49.456;8.164;2023-03-01T01:56:28;100706.09;;;-0.11;67.35
16777;BME280;8505;49.456;8.164;2023-03-01T01:58:57;100695.03;;;0.02;66.46
16777;BME280;8505;49.456;8.164;2023-03-01T02:01:26;100698.63;;;-0.34;67.90
16777;BME280;8505;49.456;8.164;2023-03-01T02:03:54;100698.47;;;-0.48;68.87
16777;BME280;8505;49.456;8.164;2023-03-01T02:06:26;100688.25;;;-0.18;67.55
16777;BME280;8505;49.456;8.164;2023-03-01T02:08:59;100684.34;;;-0.10;67.03
16777;BME280;8505;49.456;8.164;2023-03-01T02:11:29;100684.53;;;-0.13;67.28
16777;BME280;8505;49.456;8.164;2023-03-01T02:13:57;100682.38;;;-0.22;67.49
16777;BME280;8505;49.456;8.164;2023-03-01T02:16:27;100676.78;;;-0.14;67.75
16777;BME280;8505;49.456;8.164;2023-03-01T02:18:56;100677.06;;;-0.03;66.80
16777;BME280;8505;49.456;8.164;2023-03-01T02:21:33;100673.94;;;-0.10;67.54
16777;BME280;8505;49.456;8.164;2023-03-01T02:24:07;100671.97;;;0.11;66.81
16777;BME280;8505;49.456;8.164;2023-03-01T02:26:45;100666.72;;;-0.05;67.12
16777;BME280;8505;49.456;8.164;2023-03-01T02:29:16;100669.25;;;-0.03;67.20
16777;BME280;8505;49.456;8.164;2023-03-01T02:31:43;100670.75;;;0.01;66.93
16777;BME280;8505;49.456;8.164;2023-03-01T02:34:13;100668.19;;;0.17;66.14
16777;BME280;8505;49.456;8.164;2023-03-01T02:36:45;100668.13;;;-0.15;67.53
16777;BME280;8505;49.456;8.164;2023-03-01T02:39:16;100658.09;;;0.11;66.61
16777;BME280;8505;49.456;8.164;2023-03-01T02:41:47;100669.84;;;0.02;66.84
16777;BME280;8505;49.456;8.164;2023-03-01T02:44:17;100662.47;;;-0.23;67.61
16777;BME280;8505;49.456;8.164;2023-03-01T02:46:47;100659.16;;;-0.09;67.64
16777;BME280;8505;49.456;8.164;2023-03-01T02:49:19;100662.44;;;-0.06;67.25
16777;BME280;8505;49.456;8.164;2023-03-01T02:51:57;100650.19;;;-0.04;66.83
16777;BME280;8505;49.456;8.164;2023-03-01T02:54:33;100658.69;;;-0.33;68.02
16777;BME280;8505;49.456;8.164;2023-03-01T02:57:04;100647.25;;;-0.13;67.88
16777;BME280;8505;49.456;8.164;2023-03-01T02:59:35;100648.31;;;-0.17;68.00
16777;BME280;8505;49.456;8.164;2023-03-01T03:02:06;100640.94;;;-0.42;68.85
16777;BME280;8505;49.456;8.164;2023-03-01T03:04:34;100638.72;;;-0.83;70.44
16777;BME280;8505;49.456;8.164;2023-03-01T03:07:01;100632.16;;;-0.24;68.55
16777;BME280;8505;49.456;8.164;2023-03-01T03:09:29;100629.88;;;-0.30;67.98
16777;BME280;8505;49.456;8.164;2023-03-01T03:11:57;100620.78;;;-0.21;68.19
16777;BME280;8505;49.456;8.164;2023-03-01T03:14:25;100628.00;;;-0.26;68.20
16777;BME280;8505;49.456;8.164;2023-03-01T03:16:54;100623.91;;;-0.48;69.12
16777;BME280;8505;49.456;8.164;2023-03-01T03:19:21;100614.06;;;-0.25;68.60
16777;BME280;8505;49.456;8.164;2023-03-01T03:21:49;100625.63;;;-0.64;69.83
16777;BME280;8505;49.456;8.164;2023-03-01T03:24:17;100624.47;;;-0.75;70.23
16777;BME280;8505;49.456;8.164;2023-03-01T03:26:44;100610.28;;;-0.53;68.94
16777;BME280;8505;49.456;8.164;2023-03-01T03:29:12;100614.94;;;-0.42;68.81
16777;BME280;8505;49.456;8.164;2023-03-01T03:31:40;100619.41;;;-0.61;69.59
16777;BME280;8505;49.456;8.164;2023-03-01T03:34:09;100605.03;;;-0.51;69.63
16777;BME280;8505;49.456;8.164;2023-03-01T03:36:43;100614.66;;;-0.53;69.47
16777;BME280;8505;49.456;8.164;2023-03-01T03:39:11;100615.22;;;-0.64;70.39
16777;BME280;8505;49.456;8.164;2023-03-01T03:41:39;100602.88;;;-0.60;69.83
16777;BME280;8505;49.456;8.164;2023-03-01T03:44:06;100599.63;;;-0.48;69.94
16777;BME280;8505;49.456;8.164;2023-03-01T03:46:34;100604.09;;;-0.50;69.46
16777;BME280;8505;49.456;8.164;2023-03-01T03:49:02;100605.16;;;-0.54;69.90
16777;BME280;8505;49.456;8.164;2023-03-01T03:51:31;100609.13;;;-0.47;69.93
16777;BME280;8505;49.456;8.164;2023-03-01T03:53:58;100601.19;;;-0.44;69.36
16777;BME280;8505;49.456;8.164;2023-03-01T03:56:26;100611.31;;;-0.72;70.31
16777;BME280;8505;49.456;8.164;2023-03-01T03:58:54;100608.44;;;-0.84;71.12
16777;BME280;8505;49.456;8.164;2023-03-01T04:01:22;100604.03;;;-0.66;70.89
16777;BME280;8505;49.456;8.164;2023-03-01T04:03:49;100609.19;;;-0.82;71.22
16777;BME280;8505;49.456;8.164;2023-03-01T04:06:20;100604.81;;;-0.98;71.55
16777;BME280;8505;49.456;8.164;2023-03-01T04:08:49;100601.38;;;-0.64;70.80
16777;BME280;8505;49.456;8.164;2023-03-01T04:11:24;100595.03;;;-0.43;70.28
16777;BME280;8505;49.456;8.164;2023-03-01T04:13:57;100595.47;;;-0.51;69.70
16777;BME280;8505;49.456;8.164;2023-03-01T04:16:25;100591.00;;;-0.49;70.03
16777;BME280;8505;49.456;8.164;2023-03-01T04:18:53;100587.34;;;-0.45;70.15
16777;BME280;8505;49.456;8.164;2023-03-01T04:21:21;100587.47;;;-0.48;69.74
16777;BME280;8505;49.456;8.164;2023-03-01T04:23:50;100580.28;;;-0.75;71.03
16777;BME280;8505;49.456;8.164;2023-03-01T04:26:19;100591.84;;;-0.81;70.92
16777;BME280;8505;49.456;8.164;2023-03-01T04:28:47;100584.81;;;-0.46;69.80
16777;BME280;8505;49.456;8.164;2023-03-01T04:31:19;100592.06;;;-0.68;70.82
16777;BME280;8505;49.456;8.164;2023-03-01T04:33:49;100585.78;;;-0.49;70.18
16777;BME280;8505;49.456;8.164;2023-03-01T04:36:19;100588.81;;;-0.56;70.07
16777;BME280;8505;49.456;8.164;2023-03-01T04:38:49;100588.50;;;-0.50;69.59
16777;BME280;8505;49.456;8.164;2023-03-01T04:41:19;100592.09;;;-0.53;70.76
16777;BME280;8505;49.456;8.164;2023-03-01T04:43:48;100591.38;;;-0.39;69.55
16777;BME280;8505;49.456;8.164;2023-03-01T04:46:17;100591.50;;;-0.58;70.74
16777;BME280;8505;49.456;8.164;2023-03-01T04:48:46;100588.28;;;-0.63;70.30
16777;BME280;8505;49.456;8.164;2023-03-01T04:51:14;100587.47;;;-0.48;70.05
16777;BME280;8505;49.456;8.164;2023-03-01T04:53:42;100586.03;;;-0.53;70.42
16777;BME280;8505;49.456;8.164;2023-03-01T04:56:12;100586.97;;;-0.54;70.67
16777;BME280;8505;49.456;8.164;2023-03-01T04:58:41;100593.44;;;-0.78;71.29
16777;BME280;8505;49.456;8.164;2023-03-01T05:01:10;100593.81;;;-0.69;71.03
16777;BME280;8505;49.456;8.164;2023-03-01T05:03:42;100597.47;;;-0.73;71.31
16777;BME280;8505;49.456;8.164;2023-03-01T05:06:10;100596.19;;;-0.49;70.63
16777;BME280;8505;49.456;8.164;2023-03-01T05:08:39;100595.72;;;-0.39;70.43
16777;BME280;8505;49.456;8.164;2023-03-01T05:11:07;100596.19;;;-0.49;70.47
16777;BME280;8505;49.456;8.164;2023-03-01T05:13:38;100592.06;;;-0.68;71.19
16777;BME280;8505;49.456;8.164;2023-03-01T05:16:08;100584.09;;;-0.65;71.26
16777;BME280;8505;49.456;8.164;2023-03-01T05:18:38;100592.88;;;-0.68;71.41
16777;BME280;8505;49.456;8.164;2023-03-01T05:21:08;100592.19;;;-0.71;72.00
16777;BME280;8505;49.456;8.164;2023-03-01T05:23:36;100595.34;;;-0.82;71.75
16777;BME280;8505;49.456;8.164;2023-03-01T05:26:05;100596.34;;;-0.85;72.14
16777;BME280;8505;49.456;8.164;2023-03-01T05:28:52;100592.59;;;-0.96;72.46
16777;BME280;8505;49.456;8.164;2023-03-01T05:31:25;100593.91;;;-0.88;71.72
16777;BME280;8505;49.456;8.164;2023-03-01T05:33:53;100592.16;;;-0.54;71.64
16777;BME280;8505;49.456;8.164;2023-03-01T05:36:20;100584.84;;;-0.63;71.29
16777;BME280;8505;49.456;8.164;2023-03-01T05:38:48;100583.44;;;-0.53;71.44
16777;BME280;8505;49.456;8.164;2023-03-01T05:41:16;100586.81;;;-0.51;70.43
16777;BME280;8505;49.456;8.164;2023-03-01T05:43:44;100590.22;;;-0.84;71.92
16777;BME280;8505;49.456;8.164;2023-03-01T05:46:13;100594.66;;;-0.68;71.97
16777;BME280;8505;49.456;8.164;2023-03-01T05:48:41;100594.97;;;-0.92;72.51
16777;BME280;8505;49.456;8.164;2023-03-01T05:51:10;100594.44;;;-0.98;73.22
16777;BME280;8505;49.456;8.164;2023-03-01T05:53:38;100588.50;;;-0.67;72.61
16777;BME280;8505;49.456;8.164;2023-03-01T05:56:06;100586.22;;;-0.56;71.42
16777;BME280;8505;49.456;8.164;2023-03-01T05:58:34;100588.81;;;-1.06;73.69
16777;BME280;8505;49.456;8.164;2023-03-01T06:01:01;100591.09;;;-0.67;72.54
16777;BME280;8505;49.456;8.164;2023-03-01T06:03:30;100583.44;;;-0.53;72.19
16777;BME280;8505;49.456;8.164;2023-03-01T06:05:58;100577.25;;;-0.35;71.39
16777;BME280;8505;49.456;8.164;2023-03-01T06:08:26;100577.78;;;-0.28;71.16
16777;BME280;8505;49.456;8.164;2023-03-01T06:10:54;100575.34;;;-0.31;71.06
16777;BME280;8505;49.456;8.164;2023-03-01T06:13:22;100583.84;;;-0.61;71.49
16777;BME280;8505;49.456;8.164;2023-03-01T06:15:50;100582.31;;;-0.32;71.30
16777;BME280;8505;49.456;8.164;2023-03-01T06:18:18;100592.16;;;-0.54;71.53
16777;BME280;8505;49.456;8.164;2023-03-01T06:20:52;100588.50;;;-0.34;71.10
16777;BME280;8505;49.456;8.164;2023-03-01T06:23:20;100581.75;;;-0.54;71.72
16777;BME280;8505;49.456;8.164;2023-03-01T06:25:48;100578.47;;;-0.25;70.90
16777;BME280;8505;49.456;8.164;2023-03-01T06:28:16;100585.25;;;-0.38;71.19
16777;BME280;8505;49.456;8.164;2023-03-01T06:30:44;100579.28;;;-0.24;70.67
16777;BME280;8505;49.456;8.164;2023-03-01T06:33:12;100581.06;;;-0.25;71.16
16777;BME280;8505;49.456;8.164;2023-03-01T06:35:40;100576.59;;;-0.23;71.14
16777;BME280;8505;49.456;8.164;2023-03-01T06:38:09;100578.72;;;-0.14;72.13
16777;BME280;8505;49.456;8.164;2023-03-01T06:40:36;100580.81;;;-0.05;70.57
16777;BME280;8505;49.456;8.164;2023-03-01T06:43:04;100568.22;;;0.35;70.46
16777;BME280;8505;49.456;8.164;2023-03-01T06:45:33;100574.25;;;0.20;69.33
16777;BME280;8505;49.456;8.164;2023-03-01T06:48:02;100575.94;;;0.36;68.99
16777;BME280;8505;49.456;8.164;2023-03-01T06:50:31;100576.53;;;0.10;69.51
16777;BME280;8505;49.456;8.164;2023-03-01T06:52:59;100569.97;;;0.34;69.01
16777;BME280;8505;49.456;8.164;2023-03-01T06:55:28;100576.09;;;0.33;69.21
16777;BME280;8505;49.456;8.164;2023-03-01T06:57:56;100574.06;;;0.38;68.97
16777;BME280;8505;49.456;8.164;2023-03-01T07:00:25;100569.06;;;0.35;69.03
16777;BME280;8505;49.456;8.164;2023-03-01T07:02:53;100572.44;;;0.06;69.67
16777;BME280;8505;49.456;8.164;2023-03-01T07:05:21;100568.56;;;-0.03;70.00
16777;BME280;8505;49.456;8.164;2023-03-01T07:07:49;100571.91;;;0.31;69.15
16777;BME280;8505;49.456;8.164;2023-03-01T07:10:17;100573.00;;;0.27;69.57
16777;BME280;8505;49.456;8.164;2023-03-01T07:12:46;100571.09;;;0.30;69.65
16777;BME280;8505;49.456;8.164;2023-03-01T07:15:14;100570.03;;;0.49;69.22
16777;BME280;8505;49.456;8.164;2023-03-01T07:17:42;100570.56;;;0.69;68.01
16777;BME280;8505;49.456;8.164;2023-03-01T07:20:11;100567.22;;;0.67;68.55
16777;BME280;8505;49.456;8.164;2023-03-01T07:22:40;100562.38;;;0.46;69.49
16777;BME280;8505;49.456;8.164;2023-03-01T07:25:08;100556.25;;;0.47;69.13
16777;BME280;8505;49.456;8.164;2023-03-01T07:27:37;100565.13;;;0.58;69.07
16777;BME280;8505;49.456;8.164;2023-03-01T07:30:07;100557.53;;;0.39;68.62
16777;BME280;8505;49.456;8.164;2023-03-01T07:32:35;100556.75;;;0.53;68.55
16777;BME280;8505;49.456;8.164;2023-03-01T07:35:04;100550.56;;;0.70;68.33
16777;BME280;8505;49.456;8.164;2023-03-01T07:37:31;100548.22;;;0.35;69.25
16777;BME280;8505;49.456;8.164;2023-03-01T07:39:59;100552.16;;;0.72;68.50
16777;BME280;8505;49.456;8.164;2023-03-01T07:42:27;100556.03;;;0.65;68.36
16777;BME280;8505;49.456;8.164;2023-03-01T07:44:55;100547.16;;;0.84;67.26
16777;BME280;8505;49.456;8.164;2023-03-01T07:47:24;100542.34;;;1.06;67.47
16777;BME280;8505;49.456;8.164;2023-03-01T07:49:51;100539.72;;;1.06;66.90
16777;BME280;8505;49.456;8.164;2023-03-01T07:52:19;100548.75;;;1.00;67.54
16777;BME280;8505;49.456;8.164;2023-03-01T07:54:47;100546.78;;;0.90;67.27
16777;BME280;8505;49.456;8.164;2023-03-01T07:57:14;100552.63;;;1.23;66.49
16777;BME280;8505;49.456;8.164;2023-03-01T07:59:42;100537.13;;;0.92;67.00
16777;BME280;8505;49.456;8.164;2023-03-01T08:02:10;100546.84;;;1.32;66.56
16777;BME280;8505;49.456;8.164;2023-03-01T08:04:39;100542.09;;;1.39;65.83
16777;BME280;8505;49.456;8.164;2023-03-01T08:07:07;100542.81;;;1.55;65.20
16777;BME280;8505;49.456;8.164;2023-03-01T08:09:35;100545.63;;;2.07;63.37
16777;BME280;8505;49.456;8.164;2023-03-01T08:12:04;100536.03;;;2.34;63.16
16777;BME280;8505;49.456;8.164;2023-03-01T08:14:32;100536.66;;;2.77;61.04
16777;BME280;8505;49.456;8.164;2023-03-01T08:17:00;100524.84;;;3.10;59.91
16777;BME280;8505;49.456;8.164;2023-03-01T08:19:29;100522.22;;;3.35;58.48
16777;BME280;8505;49.456;8.164;2023-03-01T08:21:59;100512.09;;;3.31;58.82
16777;BME280;8505;49.456;8.164;2023-03-01T08:24:26;100517.91;;;3.59;58.05
16777;BME280;8505;49.456;8.164;2023-03-01T08:26:54;100504.97;;;3.33;58.61
16777;BME280;8505;49.456;8.164;2023-03-01T08:29:22;100500.59;;;3.08;58.82
16777;BME280;8505;49.456;8.164;2023-03-01T08:31:51;100504.81;;;3.59;57.73
16777;BME280;8505;49.456;8.164;2023-03-01T08:34:19;100504.25;;;4.03;56.21
16777;BME280;8505;49.456;8.164;2023-03-01T08:36:47;100499.56;;;4.20;55.85
16777;BME280;8505;49.456;8.164;2023-03-01T08:39:20;100492.88;;;3.92;55.55
16777;BME280;8505;49.456;8.164;2023-03-01T08:41:48;100498.16;;;3.79;56.47
16777;BME280;8505;49.456;8.164;2023-03-01T08:44:16;100495.75;;;4.13;54.96
16777;BME280;8505;49.456;8.164;2023-03-01T08:46:44;100489.75;;;4.34;54.77
16777;BME280;8505;49.456;8.164;2023-03-01T08:49:13;100489.84;;;4.57;54.22
16777;BME280;8505;49.456;8.164;2023-03-01T08:51:42;100481.34;;;4.53;54.45
16777;BME280;8505;49.456;8.164;2023-03-01T08:54:12;100485.25;;;4.36;54.53
16777;BME280;8505;49.456;8.164;2023-03-01T08:56:42;100486.69;;;4.17;54.74
16777;BME280;8505;49.456;8.164;2023-03-01T08:59:11;100484.13;;;4.28;54.62
16777;BME280;8505;49.456;8.164;2023-03-01T09:01:39;100479.84;;;4.62;53.40
16777;BME280;8505;49.456;8.164;2023-03-01T09:04:10;100478.22;;;3.89;54.40
16777;BME280;8505;49.456;8.164;2023-03-01T09:06:38;100481.63;;;4.02;54.83
16777;BME280;8505;49.456;8.164;2023-03-01T09:09:06;100479.63;;;4.06;55.06
16777;BME280;8505;49.456;8.164;2023-03-01T09:11:35;100475.69;;;4.81;52.50
16777;BME280;8505;49.456;8.164;2023-03-01T09:14:06;100480.44;;;4.65;52.60
16777;BME280;8505;49.456;8.164;2023-03-01T09:16:34;100477.25;;;4.73;52.74
16777;BME280;8505;49.456;8.164;2023-03-01T09:19:02;100484.94;;;5.09;51.79
16777;BME280;8505;49.456;8.164;2023-03-01T09:21:31;100473.22;;;5.02;52.10
16777;BME280;8505;49.456;8.164;2023-03-01T09:24:06;100471.69;;;5.44;51.21
16777;BME280;8505;49.456;8.164;2023-03-01T09:26:40;100470.75;;;5.34;50.86
16777;BME280;8505;49.456;8.164;2023-03-01T09:29:09;100469.97;;;4.76;51.94
16777;BME280;8505;49.456;8.164;2023-03-01T09:31:37;100457.81;;;5.64;50.31
16777;BME280;8505;49.456;8.164;2023-03-01T09:34:05;100461.69;;;6.03;49.38
16777;BME280;8505;49.456;8.164;2023-03-01T09:36:33;100465.56;;;5.88;49.15
16777;BME280;8505;49.456;8.164;2023-03-01T09:39:01;100459.03;;;6.15;48.73
16777;BME280;8505;49.456;8.164;2023-03-01T09:41:45;100470.09;;;5.64;48.61
16777;BME280;8505;49.456;8.164;2023-03-01T09:44:23;100460.69;;;4.95;50.54
16777;BME280;8505;49.456;8.164;2023-03-01T09:46:55;100469.06;;;5.22;50.53
16777;BME280;8505;49.456;8.164;2023-03-01T09:49:25;100461.31;;;5.54;49.86
16777;BME280;8505;49.456;8.164;2023-03-01T09:51:58;100467.28;;;5.34;50.94
16777;BME280;8505;49.456;8.164;2023-03-01T09:54:27;100468.38;;;6.07;48.23
16777;BME280;8505;49.456;8.164;2023-03-01T09:57:18;100462.19;;;5.97;49.03
16777;BME280;8505;49.456;8.164;2023-03-01T09:59:58;100472.56;;;6.31;48.50
16777;BME280;8505;49.456;8.164;2023-03-01T10:02:38;100465.84;;;6.79;47.19
16777;BME280;8505;49.456;8.164;2023-03-01T10:05:26;100464.56;;;6.95;46.92
16777;BME280;8505;49.456;8.164;2023-03-01T10:08:06;100464.13;;;6.69;46.11
16777;BME280;8505;49.456;8.164;2023-03-01T10:10:44;100457.50;;;7.16;45.64
16777;BME280;8505;49.456;8.164;2023-03-01T10:13:17;100459.00;;;7.18;45.88
16777;BME280;8505;49.456;8.164;2023-03-01T10:15:50;100446.03;;;6.96;45.83
16777;BME280;8505;49.456;8.164;2023-03-01T10:18:24;100450.00;;;6.49;46.40
16777;BME280;8505;49.456;8.164;2023-03-01T10:20:56;100447.28;;;6.71;45.74
16777;BME280;8505;49.456;8.164;2023-03-01T10:23:27;100441.59;;;6.97;45.18
16777;BME280;8505;49.456;8.164;2023-03-01T10:26:08;100435.38;;;7.28;45.36
16777;BME280;8505;49.456;8.164;2023-03-01T10:28:44;100432.97;;;7.75;44.88
16777;BME280;8505;49.456;8.164;2023-03-01T10:31:22;100429.16;;;7.39;45.38
16777;BME280;8505;49.456;8.164;2023-03-01T10:33:55;100427.31;;;8.18;43.11
16777;BME280;8505;49.456;8.164;2023-03-01T10:36:25;100426.25;;;8.96;41.34
16777;BME280;8505;49.456;8.164;2023-03-01T10:38:55;100423.59;;;6.71;45.47
16777;BME280;8505;49.456;8.164;2023-03-01T10:41:25;100432.22;;;7.44;44.92
16777;BME280;8505;49.456;8.164;2023-03-01T10:43:55;100415.63;;;7.22;44.78
16777;BME280;8505;49.456;8.164;2023-03-01T10:46:30;100415.84;;;6.79;46.15
16777;BME280;8505;49.456;8.164;2023-03-01T10:49:14;100413.00;;;7.82;43.92
16777;BME280;8505;49.456;8.164;2023-03-01T10:51:44;100402.19;;;7.75;43.26
16777;BME280;8505;49.456;8.164;2023-03-01T10:54:18;100399.66;;;7.64;45.01
16777;BME280;8505;49.456;8.164;2023-03-01T10:56:48;100393.22;;;8.82;42.40
16777;BME280;8505;49.456;8.164;2023-03-01T10:59:22;100399.38;;;10.00;40.13
16777;BME280;8505;49.456;8.164;2023-03-01T11:02:04;100387.38;;;8.32;42.81
16777;BME280;8505;49.456;8.164;2023-03-01T11:04:58;100385.41;;;8.05;43.08
16777;BME280;8505;49.456;8.164;2023-03-01T11:07:27;100377.69;;;8.69;42.29
16777;BME280;8505;49.456;8.164;2023-03-01T11:09:54;100378.75;;;7.82;42.82
16777;BME280;8505;49.456;8.164;2023-03-01T11:12:24;100369.03;;;8.86;41.67
16777;BME280;8505;49.456;8.164;2023-03-01T11:14:54;100365.41;;;9.42;41.42
16777;BME280;8505;49.456;8.164;2023-03-01T11:17:27;100355.75;;;8.69;41.59
16777;BME280;8505;49.456;8.164;2023-03-01T11:20:06;100350.50;;;9.23;40.54
16777;BME280;8505;49.456;8.164;2023-03-01T11:22:46;100348.72;;;8.50;42.46
16777;BME280;8505;49.456;8.164;2023-03-01T11:25:15;100354.94;;;8.96;40.97
16777;BME280;8505;49.456;8.164;2023-03-01T11:27:45;100342.72;;;9.22;39.95
16777;BME280;8505;49.456;8.164;2023-03-01T11:30:19;100333.25;;;9.64;38.78
16777;BME280;8505;49.456;8.164;2023-03-01T11:32:55;100331.66;;;9.89;39.83
16777;BME280;8505;49.456;8.164;2023-03-01T11:35:26;100323.03;;;10.05;38.69
16777;BME280;8505;49.456;8.164;2023-03-01T11:38:03;100314.13;;;10.06;38.03
16777;BME280;8505;49.456;8.164;2023-03-01T11:40:35;100317.75;;;10.23;38.26
16777;BME280;8505;49.456;8.164;2023-03-01T11:43:11;100300.91;;;10.58;37.12
16777;BME280;8505;49.456;8.164;2023-03-01T11:45:52;100303.69;;;11.32;35.65
16777;BME280;8505;49.456;8.164;2023-03-01T11:48:34;100297.81;;;11.04;36.29
16777;BME280;8505;49.456;8.164;2023-03-01T11:51:20;100300.38;;;9.67;38.44
16777;BME280;8505;49.456;8.164;2023-03-01T11:53:57;100301.69;;;9.00;40.16
16777;BME280;8505;49.456;8.164;2023-03-01T11:56:32;100293.16;;;10.38;38.05
16777;BME280;8505;49.456;8.164;2023-03-01T11:59:24;100301.81;;;9.44;40.16
16777;BME280;8505;49.456;8.164;2023-03-01T12:02:11;100295.09;;;9.85;39.19
16777;BME280;8505;49.456;8.164;2023-03-01T12:05:20;100279.81;;;10.74;36.95
16777;BME280;8505;49.456;8.164;2023-03-01T12:07:56;100279.31;;;11.28;35.63
16777;BME280;8505;49.456;8.164;2023-03-01T12:10:27;100283.34;;;10.05;37.66
16777;BME280;8505;49.456;8.164;2023-03-01T12:13:13;100273.78;;;9.86;38.62
16777;BME280;8505;49.456;8.164;2023-03-01T12:16:02;100273.59;;;10.31;37.04
16777;BME280;8505;49.456;8.164;2023-03-01T12:18:44;100266.97;;;10.95;35.58
16777;BME280;8505;49.456;8.164;2023-03-01T12:21:27;100249.53;;;11.59;35.20
16777;BME280;8505;49.456;8.164;2023-03-01T12:24:21;100248.19;;;11.47;35.65
16777;BME280;8505;49.456;8.164;2023-03-01T12:27:03;100248.84;;;11.41;35.67
16777;BME280;8505;49.456;8.164;2023-03-01T12:29:39;100244.94;;;10.52;36.67
16777;BME280;8505;49.456;8.164;2023-03-01T12:32:28;100233.84;;;10.49;36.71
16777;BME280;8505;49.456;8.164;2023-03-01T12:35:16;100227.34;;;11.84;34.76
16777;BME280;8505;49.456;8.164;2023-03-01T12:37:55;100225.25;;;11.05;35.77
16777;BME280;8505;49.456;8.164;2023-03-01T12:40:37;100224.00;;;10.33;36.61
16777;BME280;8505;49.456;8.164;2023-03-01T12:43:20;100219.47;;;10.60;36.29
16777;BME280;8505;49.456;8.164;2023-03-01T12:46:21;100207.22;;;10.59;36.52
16777;BME280;8505;49.456;8.164;2023-03-01T12:48:59;100209.44;;;10.71;36.46
16777;BME280;8505;49.456;8.164;2023-03-01T12:51:32;100194.13;;;11.31;35.72
16777;BME280;8505;49.456;8.164;2023-03-01T12:54:07;100184.00;;;11.03;35.39
16777;BME280;8505;49.456;8.164;2023-03-01T12:56:39;100188.75;;;10.83;36.53
16777;BME280;8505;49.456;8.164;2023-03-01T12:59:13;100180.75;;;10.59;37.51
16777;BME280;8505;49.456;8.164;2023-03-01T13:01:51;100173.38;;;10.94;36.71
16777;BME280;8505;49.456;8.164;2023-03-01T13:04:31;100169.94;;;9.84;38.77
16777;BME280;8505;49.456;8.164;2023-03-01T13:07:14;100172.03;;;9.11;39.93
16777;BME280;8505;49.456;8.164;2023-03-01T13:09:50;100161.91;;;10.70;37.92
16777;BME280;8505;49.456;8.164;2023-03-01T13:12:42;100158.69;;;10.50;37.56
16777;BME280;8505;49.456;8.164;2023-03-01T13:15:30;100153.34;;;11.57;35.13
16777;BME280;8505;49.456;8.164;2023-03-01T13:17:59;100159.47;;;9.74;38.59
16777;BME280;8505;49.456;8.164;2023-03-01T13:20:32;100147.06;;;11.58;36.45
16777;BME280;8505;49.456;8.164;2023-03-01T13:23:04;100147.09;;;11.33;36.14
16777;BME280;8505;49.456;8.164;2023-03-01T13:25:34;100155.53;;;11.05;36.34
16777;BME280;8505;49.456;8.164;2023-03-01T13:28:50;100147.41;;;11.14;36.55